Time;durP1;ratioP1;P1;durP2;ratioP2;P2;SDS_P1;SDS_P2;PMS_P1;PMS_P2;Temp;Humidity;BMP_temperature;BMP_pressure;BME280_temperature;BME280_humidity;BME280_pressure;Samples;Min_cycle;Max_cycle;Signal;HPM_P1;HPM_P2
2024/01/10 00:00:31;;;;;;;29.75;14.68;;;;;;;4.25;67.63;102223.69;4947831;28;20633;-80
2024/01/10 00:03:01;;;;;;;23.60;14.45;;;;;;;4.52;67.35;102257.78;4917544;28;20054;-81
2024/01/10 00:05:28;;;;;;;25.25;15.07;;;;;;;4.35;67.24;102254.00;4922326;28;20152;-82
2024/01/10 00:07:54;;;;;;;26.30;15.80;;;;;;;4.06;66.62;102198.06;4909051;28;20050;-81
2024/01/10 00:10:21;;;;;;;24.00;14.05;;;;;;;4.30;67.17;102253.31;4907412;28;20050;-80
2024/01/10 00:12:48;;;;;;;21.70;13.73;;;;;;;4.15;66.25;102227.56;4928379;28;20050;-81
2024/01/10 00:15:15;;;;;;;26.80;13.70;;;;;;;4.33;66.19;102255.81;4950417;28;20046;-81
2024/01/10 00:17:44;;;;;;;22.80;13.55;;;;;;;3.88;65.99;102189.97;4930272;28;20077;-81
2024/01/10 00:20:15;;;;;;;24.92;13.25;;;;;;;4.20;66.10;102241.38;4955590;28;20088;-81
2024/01/10 00:22:42;;;;;;;24.30;13.48;;;;;;;4.31;65.57;102265.53;4943532;28;20509;-82
2024/01/10 00:25:13;;;;;;;23.65;14.38;;;;;;;4.16;65.07;102231.91;4937609;28;20497;-82
2024/01/10 00:27:40;;;;;;;26.00;14.30;;;;;;;4.13;64.94;102253.91;4955980;28;20050;-80
2024/01/10 00:30:10;;;;;;;20.27;13.45;;;;;;;4.12;65.56;102249.56;4923588;28;20054;-80
2024/01/10 00:32:36;;;;;;;26.73;13.95;;;;;;;4.09;65.18;102243.56;4900804;28;20060;-81
2024/01/10 00:35:03;;;;;;;17.65;12.35;;;;;;;4.12;64.47;102249.56;4921930;28;20340;-81
2024/01/10 00:37:34;;;;;;;21.80;12.55;;;;;;;4.09;64.32;102256.69;4934723;28;20109;-82
2024/01/10 00:40:02;;;;;;;19.77;13.68;;;;;;;3.91;64.39;102235.41;4948936;28;20614;-82
2024/01/10 00:42:29;;;;;;;23.35;13.38;;;;;;;4.12;63.75;102267.09;4945972;28;20042;-81
2024/01/10 00:45:01;;;;;;;23.60;13.82;;;;;;;3.87;63.98;102236.41;4904056;28;20077;-82
2024/01/10 00:47:37;;;;;;;20.60;11.65;;;;;;;3.97;63.85;102250.94;4915915;28;20046;-81
2024/01/10 00:50:04;;;;;;;18.45;12.60;;;;;;;3.98;64.24;102265.81;4930704;28;20441;-80
2024/01/10 00:52:31;;;;;;;21.30;12.40;;;;;;;4.00;64.47;102282.38;4925464;28;20061;-81
2024/01/10 00:55:03;;;;;;;25.75;13.25;;;;;;;3.98;63.89;102265.81;4931330;28;20042;-81
2024/01/10 00:57:34;;;;;;;16.98;12.40;;;;;;;3.96;64.09;102257.13;4943306;28;20109;-81
2024/01/10 01:00:01;;;;;;;24.38;11.63;;;;;;;4.01;64.12;102272.75;4933996;28;20228;-79
2024/01/10 01:02:31;;;;;;;18.10;11.98;;;;;;;3.86;64.01;102266.25;4925330;28;20495;-84
2024/01/10 01:05:07;;;;;;;22.92;12.07;;;;;;;3.88;64.53;102264.41;4926483;28;20537;-82
2024/01/10 01:07:40;;;;;;;16.95;11.20;;;;;;;3.94;64.15;102274.72;4936309;28;20089;-83
2024/01/10 01:10:08;;;;;;;20.33;11.32;;;;;;;4.05;63.95;102282.22;4931008;28;20180;-79
2024/01/10 01:12:37;;;;;;;29.30;12.75;;;;;;;3.94;63.84;102269.47;4944612;28;20047;-82
2024/01/10 01:15:04;;;;;;;17.83;12.40;;;;;;;3.96;63.71;102286.03;4937330;28;20081;-81
2024/01/10 01:17:32;;;;;;;21.10;12.50;;;;;;;3.98;64.02;102288.59;4932804;28;20077;-82
2024/01/10 01:20:06;;;;;;;18.85;11.70;;;;;;;3.84;64.43;102270.69;4955233;28;20081;-81
2024/01/10 01:22:33;;;;;;;22.35;13.38;;;;;;;3.52;64.03;102230.63;4959391;28;20054;-81
2024/01/10 01:25:05;;;;;;;17.63;11.93;;;;;;;3.92;64.06;102278.31;4912687;28;20058;-81
2024/01/10 01:27:35;;;;;;;21.33;12.45;;;;;;;3.90;64.46;102285.38;4926047;28;20143;-81
2024/01/10 01:30:03;;;;;;;19.67;11.70;;;;;;;3.76;64.34;102267.44;4919285;28;20086;-82
2024/01/10 01:32:30;;;;;;;22.60;13.13;;;;;;;3.67;64.94;102259.91;4921948;28;20469;-82
2024/01/10 01:34:57;;;;;;;19.48;11.38;;;;;;;3.77;64.29;102277.06;4937959;28;20134;-81
2024/01/10 01:37:24;;;;;;;23.40;12.02;;;;;;;3.76;64.51;102267.44;4929320;28;20057;-81
2024/01/10 01:39:54;;;;;;;18.85;12.30;;;;;;;3.68;64.18;102243.22;4924404;28;20129;-81
2024/01/10 01:42:20;;;;;;;24.65;12.50;;;;;;;3.86;64.09;102268.88;4927330;28;20070;-80
2024/01/10 01:44:49;;;;;;;21.95;11.98;;;;;;;3.93;63.95;102280.91;4907114;28;20498;-81
2024/01/10 01:47:17;;;;;;;19.83;13.07;;;;;;;3.79;64.26;102259.50;4920113;28;20336;-80
2024/01/10 01:49:44;;;;;;;18.45;11.43;;;;;;;4.04;64.31;102291.88;4936412;28;20065;-80
2024/01/10 01:52:18;;;;;;;21.65;11.98;;;;;;;4.01;64.49;102294.63;4930640;28;20053;-81
2024/01/10 01:54:50;;;;;;;28.35;13.05;;;;;;;3.76;64.58;102251.69;4942342;28;20050;-81
2024/01/10 01:57:18;;;;;;;21.00;11.90;;;;;;;3.84;64.11;102271.53;4932455;28;20328;-81
2024/01/10 01:59:47;;;;;;;20.85;11.73;;;;;;;4.00;63.76;102277.13;4916082;28;20089;-81
2024/01/10 02:02:16;;;;;;;22.65;12.55;;;;;;;4.17;63.94;102296.69;4913392;28;20066;-80
2024/01/10 02:04:48;;;;;;;18.90;12.00;;;;;;;4.11;64.19;102294.31;4933410;28;20324;-79
2024/01/10 02:07:20;;;;;;;18.48;12.73;;;;;;;4.13;63.52;102287.22;4933364;28;20050;-81
2024/01/10 02:09:47;;;;;;;20.70;11.27;;;;;;;4.25;63.83;102303.41;4958291;28;20156;-79
2024/01/10 02:12:14;;;;;;;20.00;11.93;;;;;;;4.01;63.61;102259.59;4949454;28;20050;-78
2024/01/10 02:14:44;;;;;;;19.05;12.20;;;;;;;4.30;63.11;102311.16;4940730;28;20129;-81
2024/01/10 02:17:10;;;;;;;19.20;12.25;;;;;;;4.27;63.72;102305.97;4940827;28;20054;-80
2024/01/10 02:19:37;;;;;;;21.35;12.60;;;;;;;3.80;63.85;102243.66;4950880;28;20484;-80
2024/01/10 02:22:08;;;;;;;19.02;11.82;;;;;;;4.25;64.25;102294.69;4964227;28;20423;-81
2024/01/10 02:24:38;;;;;;;25.42;12.93;;;;;;;4.36;63.27;102283.78;4961097;28;20054;-80
2024/01/10 02:27:08;;;;;;;20.85;13.38;;;;;;;4.40;63.31;102302.00;4957132;28;20134;-80
2024/01/10 02:29:35;;;;;;;22.90;13.88;;;;;;;4.37;63.96;102304.75;4944720;28;20077;-82
2024/01/10 02:32:04;;;;;;;28.77;13.40;;;;;;;4.31;64.58;102297.06;4956744;28;20141;-81
2024/01/10 02:34:34;;;;;;;23.85;12.10;;;;;;;4.05;63.91;102241.03;4941557;28;20454;-80
2024/01/10 02:37:05;;;;;;;26.98;13.93;;;;;;;4.35;64.00;102298.69;4950467;28;20481;-80
2024/01/10 02:39:38;;;;;;;23.55;13.20;;;;;;;3.73;64.38;102209.78;4943903;28;20046;-82
2024/01/10 02:42:05;;;;;;;23.33;13.20;;;;;;;3.64;64.79;102179.41;4940446;28;20403;-81
2024/01/10 02:44:32;;;;;;;22.33;12.02;;;;;;;4.25;64.21;102278.91;4942260;28;20502;-79
2024/01/10 02:46:58;;;;;;;30.52;13.52;;;;;;;4.32;64.33;102288.28;4943513;28;20398;-81
2024/01/10 02:49:25;;;;;;;23.60;14.07;;;;;;;4.05;64.40;102245.41;4958510;28;20490;-78
2024/01/10 02:51:52;;;;;;;23.25;12.10;;;;;;;4.43;64.28;102301.03;4965926;28;20046;-79
2024/01/10 02:54:19;;;;;;;21.27;13.05;;;;;;;4.52;62.94;102297.25;4964193;28;20444;-79
2024/01/10 02:56:46;;;;;;;24.73;13.05;;;;;;;4.25;63.69;102271.88;4951581;28;20142;-78
2024/01/10 02:59:12;;;;;;;18.30;12.43;;;;;;;4.23;63.88;102272.84;4948587;28;20133;-80
2024/01/10 03:01:41;;;;;;;21.58;11.70;;;;;;;3.98;63.61;102236.91;4946336;28;20378;-81
2024/01/10 03:04:14;;;;;;;24.98;12.38;;;;;;;4.12;63.03;102253.94;4942478;28;20051;-81
2024/01/10 03:06:41;;;;;;;19.05;12.45;;;;;;;4.30;63.71;102276.97;4948043;28;20062;-80
2024/01/10 03:09:10;;;;;;;20.27;12.30;;;;;;;4.34;63.08;102291.69;4939737;28;20524;-80
2024/01/10 03:11:37;;;;;;;25.77;12.52;;;;;;;4.11;63.39;102236.47;4941991;28;20065;-80
2024/01/10 03:14:10;;;;;;;23.05;13.27;;;;;;;4.35;63.08;102282.91;4938395;28;20054;-78
2024/01/10 03:16:42;;;;;;;23.10;13.45;;;;;;;4.36;63.32;102284.63;4963678;28;20141;-81
2024/01/10 03:19:17;;;;;;;23.25;13.07;;;;;;;4.22;63.40;102268.47;4952586;28;20046;-81
2024/01/10 03:21:43;;;;;;;23.02;12.80;;;;;;;4.28;63.21;102270.91;4949991;28;20512;-79
2024/01/10 03:24:10;;;;;;;22.77;12.80;;;;;;;4.31;63.13;102276.03;4928992;28;20050;-80
2024/01/10 03:26:37;;;;;;;31.10;13.23;;;;;;;4.41;62.90;102298.47;4919297;28;20362;-81
2024/01/10 03:29:04;;;;;;;22.20;13.73;;;;;;;4.19;63.03;102255.44;4927309;28;20223;-79
2024/01/10 03:31:31;;;;;;;21.75;12.55;;;;;;;3.94;63.53;102219.53;4963781;28;20138;-80
2024/01/10 03:33:58;;;;;;;27.10;13.98;;;;;;;4.32;64.03;102293.56;4957669;28;20054;-80
2024/01/10 03:36:25;;;;;;;17.63;12.80;;;;;;;4.29;64.22;102293.63;4939285;28;20378;-82
2024/01/10 03:38:52;;;;;;;25.23;13.80;;;;;;;4.35;64.01;102288.19;4956524;28;20046;-81
2024/01/10 03:41:20;;;;;;;27.63;14.48;;;;;;;3.31;63.96;102113.19;4940449;28;20051;-80
2024/01/10 03:43:54;;;;;;;23.52;13.43;;;;;;;4.09;63.72;102238.31;4953935;28;20051;-81
2024/01/10 03:46:21;;;;;;;23.20;13.32;;;;;;;4.39;63.90;102296.78;4967154;28;20120;-80
2024/01/10 03:48:48;;;;;;;25.02;13.40;;;;;;;4.00;63.95;102237.69;4937279;28;20069;-79
2024/01/10 03:51:17;;;;;;;26.77;13.68;;;;;;;4.33;64.04;102284.75;4955212;28;20046;-78
2024/01/10 03:53:44;;;;;;;22.45;12.15;;;;;;;4.31;63.78;102273.41;4947542;28;20787;-81
2024/01/10 03:56:17;;;;;;;21.02;13.05;;;;;;;4.28;64.28;102286.69;4935496;28;20326;-80
2024/01/10 03:58:50;;;;;;;24.85;14.00;;;;;;;4.08;64.68;102247.97;4957997;28;20061;-81
2024/01/10 04:01:25;;;;;;;26.23;13.85;;;;;;;4.26;65.15;102283.25;4925893;28;20753;-81
2024/01/10 04:03:52;;;;;;;26.23;14.75;;;;;;;4.03;64.78;102231.50;4935902;28;20395;-80
2024/01/10 04:06:19;;;;;;;23.88;15.65;;;;;;;4.20;64.22;102263.28;4960239;28;20046;-80
2024/01/10 04:08:49;;;;;;;22.77;14.55;;;;;;;4.14;64.93;102260.03;4929191;28;20566;-81
2024/01/10 04:11:16;;;;;;;27.10;14.00;;;;;;;4.24;64.62;102285.06;4942074;28;20054;-79
2024/01/10 04:13:46;;;;;;;26.13;14.15;;;;;;;4.19;64.82;102276.47;4932760;28;20213;-83
2024/01/10 04:16:13;;;;;;;25.38;14.23;;;;;;;3.79;64.51;102205.16;4959111;28;20089;-78
2024/01/10 04:18:40;;;;;;;30.25;16.15;;;;;;;4.19;64.73;102265.97;4944464;28;20050;-79
2024/01/10 04:21:08;;;;;;;28.55;15.38;;;;;;;3.97;64.86;102229.06;4961489;28;20054;-79
2024/01/10 04:23:35;;;;;;;25.92;15.63;;;;;;;4.06;64.81;102261.16;4963082;28;20269;-79
2024/01/10 04:26:03;;;;;;;27.67;15.23;;;;;;;3.85;65.16;102228.59;4959780;28;20552;-79
2024/01/10 04:28:30;;;;;;;21.80;14.35;;;;;;;4.01;65.08;102251.72;4951736;28;20050;-81
2024/01/10 04:30:56;;;;;;;25.90;15.60;;;;;;;4.09;65.33;102273.31;4951532;28;20142;-80
2024/01/10 04:33:29;;;;;;;25.45;14.52;;;;;;;4.15;65.39;102291.53;4939222;28;20413;-81
2024/01/10 04:35:58;;;;;;;24.65;16.02;;;;;;;4.11;65.90;102284.66;4961237;28;20141;-81
2024/01/10 04:38:26;;;;;;;24.83;15.18;;;;;;;4.01;66.27;102272.75;4944617;28;20057;-79
2024/01/10 04:40:53;;;;;;;28.45;14.48;;;;;;;4.09;65.23;102285.63;4961751;28;20054;-80
2024/01/10 04:43:20;;;;;;;22.83;14.63;;;;;;;3.69;65.74;102219.53;4946074;28;20054;-81
2024/01/10 04:45:47;;;;;;;24.20;14.88;;;;;;;4.08;65.58;102282.13;4942818;28;20108;-81
2024/01/10 04:48:17;;;;;;;21.90;14.48;;;;;;;4.11;65.17;102294.31;4943198;28;20046;-80
2024/01/10 04:50:48;;;;;;;28.35;15.65;;;;;;;4.09;65.76;102296.97;4959179;28;20045;-81
2024/01/10 04:53:16;;;;;;;26.20;15.52;;;;;;;4.10;65.74;102287.31;4964895;28;20485;-80
2024/01/10 04:55:43;;;;;;;21.73;14.88;;;;;;;3.96;65.13;102253.66;4960178;28;20419;-79
2024/01/10 04:58:10;;;;;;;25.33;15.43;;;;;;;4.07;64.66;102278.63;4944128;28;20046;-81
2024/01/10 05:00:37;;;;;;;23.95;14.57;;;;;;;3.95;64.61;102262.44;4949048;28;20050;-81
2024/01/10 05:03:04;;;;;;;22.75;14.77;;;;;;;4.08;64.33;102297.91;4940589;28;20349;-79
2024/01/10 05:05:31;;;;;;;26.02;13.45;;;;;;;4.06;64.67;102291.84;4944340;28;20528;-81
2024/01/10 05:07:58;;;;;;;25.80;14.45;;;;;;;3.80;64.83;102258.56;4942866;28;20738;-81
2024/01/10 05:10:25;;;;;;;24.50;15.27;;;;;;;3.85;65.68;102282.91;4946186;28;20149;-80
2024/01/10 05:12:55;;;;;;;23.45;14.68;;;;;;;3.90;65.98;102291.47;4940434;28;20146;-81
2024/01/10 05:15:22;;;;;;;26.42;15.07;;;;;;;3.70;65.69;102252.75;4949915;28;20046;-81
2024/01/10 05:17:49;;;;;;;20.65;14.30;;;;;;;3.94;65.35;102298.38;4943877;28;20541;-82
2024/01/10 05:20:16;;;;;;;26.45;15.95;;;;;;;3.96;65.25;102299.19;4942274;28;20046;-81
2024/01/10 05:22:44;;;;;;;28.67;14.77;;;;;;;3.63;65.69;102262.59;4922303;28;20055;-80
2024/01/10 05:25:11;;;;;;;25.23;15.60;;;;;;;3.91;65.67;102295.84;4926319;28;20054;-79
2024/01/10 05:27:39;;;;;;;22.15;13.98;;;;;;;3.96;65.55;102312.31;4950028;28;20094;-80
2024/01/10 05:30:07;;;;;;;24.35;15.50;;;;;;;3.65;65.34;102257.31;4947919;28;20055;-81
2024/01/10 05:32:36;;;;;;;29.58;15.75;;;;;;;3.67;65.96;102268.63;4934474;28;20049;-81
2024/01/10 05:35:04;;;;;;;26.00;16.20;;;;;;;3.95;66.04;102321.09;4959143;28;20488;-82
2024/01/10 05:37:32;;;;;;;26.52;15.35;;;;;;;3.80;66.23;102298.81;4949099;28;20050;-82
2024/01/10 05:39:59;;;;;;;24.38;15.20;;;;;;;3.95;65.71;102328.13;4960743;28;20303;-80
2024/01/10 05:42:26;;;;;;;27.33;16.13;;;;;;;3.86;65.49;102310.91;4944942;28;20050;-80
2024/01/10 05:44:53;;;;;;;22.92;14.52;;;;;;;3.83;65.65;102301.34;4962948;28;20059;-81
2024/01/10 05:47:20;;;;;;;29.88;14.93;;;;;;;3.98;65.86;102342.03;4942516;28;20421;-80
2024/01/10 05:49:47;;;;;;;24.95;15.52;;;;;;;3.97;66.36;102340.28;4967629;28;20078;-80
2024/01/10 05:52:16;;;;;;;27.95;15.95;;;;;;;3.81;66.00;102307.56;4955210;28;20058;-81
2024/01/10 05:54:42;;;;;;;28.58;14.80;;;;;;;4.03;65.77;102345.38;4952391;28;20542;-81
2024/01/10 05:57:09;;;;;;;27.52;15.25;;;;;;;4.06;65.90;102342.63;4960931;28;20049;-81
2024/01/10 05:59:36;;;;;;;28.35;16.25;;;;;;;4.06;65.63;102333.88;4968601;28;20132;-80
2024/01/10 06:02:03;;;;;;;24.70;14.98;;;;;;;4.17;65.66;102346.66;4974645;28;20058;-81
2024/01/10 06:04:31;;;;;;;27.02;15.60;;;;;;;3.99;65.06;102301.69;4958244;28;20050;-83
2024/01/10 06:06:59;;;;;;;29.55;15.55;;;;;;;4.00;65.11;102313.91;4965371;28;20136;-81
2024/01/10 06:09:28;;;;;;;27.33;14.63;;;;;;;4.12;65.19;102338.91;4946145;28;20039;-81
2024/01/10 06:11:54;;;;;;;24.63;15.57;;;;;;;3.87;64.96;102307.38;4965754;28;20077;-80
2024/01/10 06:14:21;;;;;;;27.75;16.00;;;;;;;4.18;65.06;102345.75;4948924;28;20546;-79
2024/01/10 06:16:48;;;;;;;28.58;15.32;;;;;;;4.06;65.35;102333.88;4954400;28;20105;-82
2024/01/10 06:19:16;;;;;;;27.48;15.57;;;;;;;4.14;65.37;102346.75;4957458;28;20198;-79
2024/01/10 06:21:46;;;;;;;26.45;16.27;;;;;;;4.03;65.33;102339.25;4954295;28;20140;-80
2024/01/10 06:24:17;;;;;;;30.40;15.40;;;;;;;3.75;65.43;102297.25;4957495;28;20501;-82
2024/01/10 06:26:47;;;;;;;22.05;14.45;;;;;;;3.91;64.92;102332.63;4965681;28;20139;-81
2024/01/10 06:29:13;;;;;;;24.83;15.20;;;;;;;4.09;65.08;102356.56;4958719;28;20050;-80
2024/01/10 06:31:42;;;;;;;40.88;16.67;;;;;;;3.92;65.03;102321.19;4955359;28;20855;-83
2024/01/10 06:34:12;;;;;;;30.75;16.30;;;;;;;4.15;65.15;102351.97;4954111;28;20060;-82
2024/01/10 06:36:39;;;;;;;33.38;15.93;;;;;;;4.19;65.03;102360.59;4963467;28;20082;-81
2024/01/10 06:39:12;;;;;;;29.88;16.10;;;;;;;4.14;65.30;102362.53;4964813;28;20137;-79
2024/01/10 06:41:39;;;;;;;22.98;14.05;;;;;;;4.03;65.33;102355.88;4960377;28;20038;-79
2024/01/10 06:44:09;;;;;;;28.50;15.82;;;;;;;4.10;65.54;102366.16;4967316;28;20493;-79
2024/01/10 06:46:38;;;;;;;26.92;14.95;;;;;;;4.05;65.40;102359.31;4943311;28;20152;-81
2024/01/10 06:49:07;;;;;;;21.77;15.65;;;;;;;4.05;65.41;102368.94;4969326;28;20061;-78
2024/01/10 06:51:34;;;;;;;33.10;16.23;;;;;;;4.08;64.89;102368.88;4943600;28;20422;-78
2024/01/10 06:54:03;;;;;;;25.05;15.88;;;;;;;4.01;64.72;102352.44;4974932;28;20057;-82
2024/01/10 06:56:34;;;;;;;29.17;14.77;;;;;;;4.12;64.96;102374.88;4934140;28;20058;-80
2024/01/10 06:59:10;;;;;;;26.30;15.60;;;;;;;4.03;64.63;102340.09;4939343;28;20105;-79
2024/01/10 07:01:57;;;;;;;28.85;16.25;;;;;;;4.06;65.33;102361.03;4961420;28;20057;-79
2024/01/10 07:04:32;;;;;;;26.27;15.05;;;;;;;4.14;64.75;102375.69;4988525;28;20105;-80
2024/01/10 07:07:02;;;;;;;24.23;14.18;;;;;;;4.18;64.83;102369.41;4984898;28;20046;-83
2024/01/10 07:09:29;;;;;;;23.58;14.07;;;;;;;4.23;64.86;102372.75;4959685;28;20049;-81
2024/01/10 07:11:58;;;;;;;23.60;15.02;;;;;;;4.13;64.58;102358.19;4969283;28;20054;-82
2024/01/10 07:14:25;;;;;;;28.35;15.38;;;;;;;4.13;63.82;102366.94;4970870;28;20046;-81
2024/01/10 07:16:53;;;;;;;26.75;15.57;;;;;;;4.14;65.12;102367.78;4948674;28;20052;-82
2024/01/10 07:19:20;;;;;;;22.60;15.35;;;;;;;4.09;64.93;102374.97;4946298;28;20050;-82
2024/01/10 07:21:48;;;;;;;24.80;16.35;;;;;;;4.14;64.67;102367.78;4948197;28;20046;-80
2024/01/10 07:24:17;;;;;;;27.35;15.73;;;;;;;4.28;63.93;102392.69;4956230;28;20046;-82
2024/01/10 07:26:47;;;;;;;25.08;16.00;;;;;;;4.10;63.64;102376.69;4975874;28;20105;-82
2024/01/10 07:29:19;;;;;;;28.10;14.25;;;;;;;3.80;64.17;102322.47;4947093;28;20124;-81
2024/01/10 07:31:46;;;;;;;24.88;14.50;;;;;;;4.13;64.16;102371.34;4960108;28;20175;-79
2024/01/10 07:34:15;;;;;;;25.02;14.80;;;;;;;4.24;63.88;102401.59;4974692;28;20142;-81
2024/01/10 07:36:43;;;;;;;27.25;15.65;;;;;;;4.18;64.41;102387.81;4956907;28;20117;-80
2024/01/10 07:39:10;;;;;;;26.83;14.88;;;;;;;4.29;64.93;102407.53;4945136;28;20049;-80
2024/01/10 07:41:41;;;;;;;23.95;14.50;;;;;;;4.24;64.33;102408.63;4952751;28;20042;-81
2024/01/10 07:44:09;;;;;;;27.17;15.70;;;;;;;4.33;63.92;102416.22;4950394;28;20046;-79
2024/01/10 07:46:39;;;;;;;24.17;15.32;;;;;;;4.22;64.25;102403.44;4963522;28;20422;-80
2024/01/10 07:49:06;;;;;;;31.08;15.50;;;;;;;4.36;63.57;102421.34;4945307;28;20486;-80
2024/01/10 07:51:36;;;;;;;27.60;16.73;;;;;;;4.37;63.80;102428.34;4959415;28;20053;-80
2024/01/10 07:54:07;;;;;;;23.00;14.68;;;;;;;4.25;64.46;102428.75;4973162;28;20587;-81
2024/01/10 07:56:34;;;;;;;26.08;13.95;;;;;;;4.22;63.49;102431.47;4958716;28;20167;-79
2024/01/10 07:59:01;;;;;;;25.52;15.07;;;;;;;3.95;64.06;102389.41;4968238;28;20044;-79
2024/01/10 08:01:32;;;;;;;27.38;15.65;;;;;;;4.19;63.75;102426.31;4960798;28;20116;-80
2024/01/10 08:03:59;;;;;;;26.23;15.32;;;;;;;4.21;62.80;102428.00;4949537;28;20049;-80
2024/01/10 08:06:26;;;;;;;26.08;14.93;;;;;;;4.26;63.18;102435.72;4959523;28;20506;-80
2024/01/10 08:09:04;;;;;;;27.30;15.35;;;;;;;4.36;63.90;102452.06;4957747;28;20054;-80
2024/01/10 08:11:38;;;;;;;28.95;14.77;;;;;;;4.35;63.38;102439.84;4953043;28;20484;-80
2024/01/10 08:14:05;;;;;;;27.58;16.20;;;;;;;4.26;63.22;102419.97;4966441;28;20117;-80
2024/01/10 08:16:35;;;;;;;26.73;14.63;;;;;;;4.52;62.13;102444.53;4959544;28;20074;-80
2024/01/10 08:19:01;;;;;;;27.42;15.60;;;;;;;4.39;61.57;102444.06;4945921;28;20057;-79
2024/01/10 08:21:31;;;;;;;26.08;14.73;;;;;;;4.01;61.46;102376.09;4958824;28;20451;-80
2024/01/10 08:23:58;;;;;;;21.67;13.85;;;;;;;4.45;60.90;102447.34;4947077;28;20057;-80
2024/01/10 08:26:25;;;;;;;23.58;13.25;;;;;;;4.50;61.25;102455.94;4955108;28;20139;-80
2024/01/10 08:28:52;;;;;;;24.98;14.00;;;;;;;4.39;61.60;102441.44;4973946;28;20136;-80
2024/01/10 08:31:19;;;;;;;22.45;14.95;;;;;;;4.28;61.27;102419.00;4954614;28;20058;-80
2024/01/10 08:33:46;;;;;;;21.75;13.48;;;;;;;4.33;59.85;102429.34;4942899;28;20038;-79
2024/01/10 08:36:16;;;;;;;24.52;14.23;;;;;;;4.54;60.65;102445.31;4959821;28;20483;-79
2024/01/10 08:38:43;;;;;;;25.33;14.15;;;;;;;4.49;60.80;102442.84;4945485;28;20045;-80
2024/01/10 08:41:11;;;;;;;29.75;12.85;;;;;;;4.59;60.17;102459.19;4958049;28;20138;-80
2024/01/10 08:43:39;;;;;;;20.92;14.10;;;;;;;4.14;60.05;102388.81;4974748;28;20081;-80
2024/01/10 08:46:08;;;;;;;23.63;14.68;;;;;;;4.41;60.70;102452.75;4970922;28;20050;-81
2024/01/10 08:48:36;;;;;;;24.17;13.48;;;;;;;4.10;60.83;102398.56;4959407;28;20521;-82
2024/01/10 08:51:03;;;;;;;17.27;12.85;;;;;;;4.44;60.55;102471.94;4941030;28;20401;-80
2024/01/10 08:53:30;;;;;;;21.80;13.80;;;;;;;4.46;60.12;102464.84;4961906;28;20137;-80
2024/01/10 08:55:57;;;;;;;20.92;12.90;;;;;;;4.39;60.24;102462.47;4954432;28;20469;-80
2024/01/10 08:58:27;;;;;;;21.92;13.63;;;;;;;4.53;59.47;102485.69;4943088;28;20054;-81
2024/01/10 09:00:54;;;;;;;17.88;11.30;;;;;;;4.57;58.88;102488.16;4958045;28;20560;-80
2024/01/10 09:03:23;;;;;;;21.40;12.65;;;;;;;4.44;58.89;102464.06;4952994;28;20487;-80
2024/01/10 09:05:50;;;;;;;18.75;12.35;;;;;;;4.53;57.64;102485.69;4941108;28;20137;-80
2024/01/10 09:08:34;;;;;;;23.80;12.80;;;;;;;4.37;58.52;102459.91;4951647;28;20053;-79
2024/01/10 09:11:03;;;;;;;27.23;12.88;;;;;;;4.61;57.48;102495.06;4953960;28;20054;-79
2024/01/10 09:13:34;;;;;;;19.80;11.93;;;;;;;4.28;57.92;102439.16;4958759;28;20054;-81
2024/01/10 09:16:04;;;;;;;20.48;12.80;;;;;;;4.63;58.02;102487.09;4948699;28;20069;-81
2024/01/10 09:18:31;;;;;;;19.08;12.43;;;;;;;4.84;57.39;102509.19;4946904;28;20049;-80
2024/01/10 09:21:04;;;;;;;20.65;13.48;;;;;;;4.76;56.64;102493.66;4967975;28;20053;-81
2024/01/10 09:23:31;;;;;;;20.88;12.13;;;;;;;4.20;57.15;102407.00;4968621;28;20124;-80
2024/01/10 09:25:57;;;;;;;24.80;13.32;;;;;;;4.78;56.96;102510.28;4948284;28;20042;-80
2024/01/10 09:28:28;;;;;;;25.42;13.10;;;;;;;4.56;57.39;102475.06;4944701;28;20502;-81
2024/01/10 09:31:02;;;;;;;23.35;11.70;;;;;;;4.88;56.93;102511.66;4955696;28;20042;-79
2024/01/10 09:33:31;;;;;;;21.13;13.15;;;;;;;4.90;56.66;102504.59;4969791;28;20053;-80
2024/01/10 09:36:03;;;;;;;24.23;12.63;;;;;;;4.87;56.54;102512.56;4933412;28;20061;-81
2024/01/10 09:38:37;;;;;;;23.60;13.25;;;;;;;4.83;56.50;102512.72;4951872;28;20329;-79
2024/01/10 09:41:05;;;;;;;21.08;12.57;;;;;;;4.87;56.74;102507.28;4948541;28;20564;-80
2024/01/10 09:43:36;;;;;;;24.08;12.85;;;;;;;4.86;56.89;102504.75;4956892;28;20497;-79
2024/01/10 09:46:07;;;;;;;24.88;14.57;;;;;;;4.93;56.20;102512.38;4945339;28;20062;-82
2024/01/10 09:48:34;;;;;;;20.88;13.45;;;;;;;4.96;56.58;102506.13;4931644;28;20043;-82
2024/01/10 09:51:01;;;;;;;23.98;13.70;;;;;;;4.66;57.38;102460.66;4950496;28;20533;-82
2024/01/10 09:53:31;;;;;;;24.63;14.13;;;;;;;5.02;57.63;102513.78;4940196;28;20376;-80
2024/01/10 09:56:04;;;;;;;22.95;12.85;;;;;;;5.23;56.18;102509.56;4943218;28;20054;-81
2024/01/10 09:58:38;;;;;;;26.23;14.02;;;;;;;5.17;55.83;102512.41;4931513;28;20053;-82
2024/01/10 10:01:06;;;;;;;21.52;13.98;;;;;;;5.08;56.75;102503.06;4949445;28;20050;-81
2024/01/10 10:03:37;;;;;;;20.75;13.48;;;;;;;5.14;56.61;102501.97;4946725;28;20054;-81
2024/01/10 10:06:08;;;;;;;29.35;14.98;;;;;;;5.01;56.30;102477.03;4941853;28;20060;-82
2024/01/10 10:08:38;;;;;;;26.48;14.32;;;;;;;5.11;55.92;102510.00;4952401;28;20042;-81
2024/01/10 10:11:05;;;;;;;26.23;14.10;;;;;;;5.06;57.21;102498.78;4936885;28;20390;-82
2024/01/10 10:13:41;;;;;;;24.80;14.40;;;;;;;5.13;56.27;102487.97;4943354;28;20133;-82
2024/01/10 10:16:12;;;;;;;28.55;14.95;;;;;;;5.16;55.87;102508.06;4945746;28;20053;-82
2024/01/10 10:18:42;;;;;;;23.52;14.43;;;;;;;5.08;56.09;102491.69;4939683;28;20046;-81
2024/01/10 10:21:11;;;;;;;24.65;14.82;;;;;;;5.07;56.69;102504.00;4954598;28;20050;-82
2024/01/10 10:23:59;;;;;;;24.13;13.95;;;;;;;5.06;57.09;102501.41;4951083;28;20057;-79
2024/01/10 10:26:29;;;;;;;27.02;14.85;;;;;;;5.05;57.22;102500.56;4955224;28;20532;-81
2024/01/10 10:28:56;;;;;;;25.17;13.57;;;;;;;4.98;56.85;102477.13;4956669;28;20560;-82
2024/01/10 10:31:29;;;;;;;19.85;14.18;;;;;;;5.19;57.32;102493.91;4959338;28;20113;-82
2024/01/10 10:33:59;;;;;;;27.05;13.30;;;;;;;5.10;57.22;102474.91;4957742;28;20046;-82
2024/01/10 10:36:26;;;;;;;24.92;13.65;;;;;;;5.12;55.40;102469.56;4955919;28;20478;-80
2024/01/10 10:38:53;;;;;;;26.02;14.23;;;;;;;5.06;55.91;102475.06;4945372;28;20158;-81
2024/01/10 10:41:27;;;;;;;25.33;15.27;;;;;;;5.12;56.81;102488.88;4942004;28;20074;-82
2024/01/10 10:43:54;;;;;;;27.17;14.68;;;;;;;5.10;56.23;102484.59;4958134;28;20233;-83
2024/01/10 10:46:25;;;;;;;24.67;14.88;;;;;;;5.01;56.76;102461.22;4947026;28;20402;-78
2024/01/10 10:48:54;;;;;;;26.92;14.85;;;;;;;5.19;55.81;102476.34;4923907;28;20258;-81
2024/01/10 10:51:33;;;;;;;29.73;15.15;;;;;;;5.29;56.10;102493.53;4934044;28;20065;-82
2024/01/10 10:54:03;;;;;;;25.45;14.63;;;;;;;5.22;56.20;102485.91;4936019;28;20051;-81
2024/01/10 10:56:36;;;;;;;28.05;15.65;;;;;;;5.29;55.66;102496.19;4930901;28;20050;-80
2024/01/10 10:59:05;;;;;;;24.45;13.98;;;;;;;5.28;55.88;102483.91;4945179;28;20493;-79
2024/01/10 11:01:34;;;;;;;26.52;15.93;;;;;;;5.31;56.14;102481.16;4930082;28;20047;-80
2024/01/10 11:04:01;;;;;;;28.55;15.60;;;;;;;5.30;56.33;102474.19;4945438;28;20050;-80
2024/01/10 11:06:29;;;;;;;25.40;14.60;;;;;;;5.31;56.86;102480.31;4939923;28;20466;-81
2024/01/10 11:09:07;;;;;;;24.58;13.93;;;;;;;5.14;56.12;102430.88;4945565;28;20454;-80
2024/01/10 11:11:52;;;;;;;24.50;15.23;;;;;;;5.47;56.76;102496.41;4959859;28;20421;-81
2024/01/10 11:14:21;;;;;;;31.73;16.52;;;;;;;5.59;56.43;102490.69;4968387;28;20494;-79
2024/01/10 11:17:01;;;;;;;26.38;15.98;;;;;;;5.50;56.23;102485.75;4950707;28;20046;-80
2024/01/10 11:20:20;;;;;;;23.27;14.82;;;;;;;5.26;55.97;102445.38;4959547;28;20510;-80
2024/01/10 11:23:14;;;;;;;25.05;15.38;;;;;;;5.02;56.31;102424.28;4903939;28;20046;-79
2024/01/10 11:25:45;;;;;;;32.13;16.40;;;;;;;5.19;56.81;102442.09;4951299;28;20504;-81